Portada
METAR-TAF:

METAR-TAF

Aeropuertos :

Payam

Karaj, Irán

latitud: 35-46-34N, longitud: 050-49-36E, altitud: 1271 m

Observación

El informe se hizo hace 1 hora y 47 minutos, a las 21:00 UTC
Viento 8 kt del oeste
Temperatura 0°C
Humedad 74%
Presión 1017 hPa
Visibilidad 10 km o más
sin nubes por debajo de 1500 m y sin presencia de cumulonimbus.

METAR: OIIP 242100Z 27008KT CAVOK M00/M04 Q1017 A3004

Hora: 02:17 (22:47 UTC)


TAF: falta

Observaciones y pronósticos meteorológicos de más de 4000 aeropuertos (mensajes METAR y TAF).

Los puntos amarillos y rojos representan las estaciones disponibles.

Ponga el ratón en el punto deseado para ver el nombre de la estación.

Haga clic para ver las observaciones y los pronósticos meteorológicos.

Para cambiar el mapa : haga clic en los botones verdes con una cruz de color negro para hacer un zoom, en el botón verde con un guión para alejar o en las flechas verdes para mapas adyacentes.


METAR-TAF: